Time;durP1;ratioP1;P1;durP2;ratioP2;P2;SDS_P1;SDS_P2;PMS_P1;PMS_P2;Temp;Humidity;BMP_temperature;BMP_pressure;BME280_temperature;BME280_humidity;BME280_pressure;Samples;Min_cycle;Max_cycle;Signal;HPM_P1;HPM_P2
2023/05/03 00:00:11;;;;;;;9.60;2.80;;;7.20;99.90;;;;;;5068003;28;20036;-74
2023/05/03 00:02:38;;;;;;;8.00;3.05;;;7.20;99.90;;;;;;5059652;28;20074;-74
2023/05/03 00:05:07;;;;;;;9.90;3.67;;;7.20;99.90;;;;;;5050686;28;20048;-74
2023/05/03 00:07:33;;;;;;;10.02;2.70;;;7.30;99.90;;;;;;5077634;28;20069;-74
2023/05/03 00:09:58;;;;;;;10.90;3.10;;;7.30;99.90;;;;;;5066190;28;20063;-74
2023/05/03 00:12:24;;;;;;;9.10;3.20;;;7.30;99.90;;;;;;5071022;28;20081;-74
2023/05/03 00:14:50;;;;;;;9.82;2.88;;;7.30;99.90;;;;;;5060562;28;20216;-74
2023/05/03 00:17:16;;;;;;;10.93;2.80;;;7.30;99.90;;;;;;5058146;28;20277;-74
2023/05/03 00:19:41;;;;;;;9.60;2.90;;;7.50;99.90;;;;;;5048731;28;20068;-74
2023/05/03 00:22:08;;;;;;;9.10;2.97;;;7.40;99.90;;;;;;5059257;28;20047;-74
2023/05/03 00:24:34;;;;;;;8.80;2.80;;;7.40;99.90;;;;;;5059702;28;20469;-74
2023/05/03 00:27:00;;;;;;;12.13;2.75;;;7.40;99.90;;;;;;5064949;28;20047;-74
2023/05/03 00:29:26;;;;;;;8.38;2.88;;;7.40;99.90;;;;;;5059997;28;20092;-75
2023/05/03 00:31:52;;;;;;;7.97;2.45;;;7.40;99.90;;;;;;5091210;28;20052;-74
2023/05/03 00:34:17;;;;;;;10.18;3.38;;;7.40;99.90;;;;;;5064360;28;20052;-74
2023/05/03 00:36:43;;;;;;;9.38;2.80;;;7.40;99.90;;;;;;5058243;28;20036;-75
2023/05/03 00:39:10;;;;;;;9.75;3.10;;;7.40;99.90;;;;;;5055080;28;20510;-74
2023/05/03 00:41:36;;;;;;;8.68;3.25;;;7.40;99.90;;;;;;5059398;28;20033;-74
2023/05/03 00:44:01;;;;;;;9.63;3.10;;;7.40;99.90;;;;;;5074112;28;20194;-74
2023/05/03 00:46:28;;;;;;;7.10;2.60;;;7.40;99.90;;;;;;5076331;28;20074;-74
2023/05/03 00:48:54;;;;;;;9.52;3.00;;;7.40;99.90;;;;;;5056961;28;20093;-74
2023/05/03 00:51:21;;;;;;;8.95;3.00;;;7.40;99.90;;;;;;5059373;28;20032;-74
2023/05/03 00:53:47;;;;;;;7.60;2.50;;;7.40;99.90;;;;;;5065753;28;20020;-74
2023/05/03 00:56:18;;;;;;;9.13;2.60;;;7.40;99.90;;;;;;5056763;28;20330;-75
2023/05/03 00:58:44;;;;;;;8.43;2.60;;;7.50;99.90;;;;;;5062607;28;20058;-74
2023/05/03 01:01:11;;;;;;;8.35;2.40;;;7.40;99.90;;;;;;5052655;28;20035;-74
2023/05/03 01:03:39;;;;;;;8.10;2.55;;;7.40;99.90;;;;;;5067837;28;20031;-74
2023/05/03 01:06:26;;;;;;;7.47;2.47;;;7.40;99.90;;;;;;5081254;28;20155;-74
2023/05/03 01:09:02;;;;;;;7.57;2.22;;;7.40;99.90;;;;;;5066974;28;20071;-74
2023/05/03 01:11:34;;;;;;;9.32;2.58;;;7.40;99.90;;;;;;5069827;28;20031;-74
2023/05/03 01:14:24;;;;;;;9.35;2.83;;;7.40;99.90;;;;;;5065194;28;20035;-74
2023/05/03 01:16:55;;;;;;;7.95;2.25;;;7.40;99.90;;;;;;5058462;28;20032;-74
2023/05/03 01:19:47;;;;;;;8.32;2.22;;;7.40;99.90;;;;;;5067274;28;20284;-74
2023/05/03 01:22:36;;;;;;;7.93;2.50;;;7.40;99.90;;;;;;5055738;28;20040;-74
2023/05/03 01:25:08;;;;;;;7.40;2.35;;;7.40;99.90;;;;;;5061500;28;20095;-74
2023/05/03 01:27:34;;;;;;;7.72;2.13;;;7.40;99.90;;;;;;5069894;28;20104;-74
2023/05/03 01:30:02;;;;;;;8.60;2.50;;;7.40;99.90;;;;;;5070880;28;20032;-74
2023/05/03 01:32:55;;;;;;;8.00;2.20;;;7.40;99.90;;;;;;5066926;28;20298;-74
2023/05/03 01:35:33;;;;;;;7.07;2.25;;;7.40;99.90;;;;;;5059262;28;20048;-74
2023/05/03 01:37:59;;;;;;;8.45;2.20;;;7.40;99.90;;;;;;5075770;28;20036;-74
2023/05/03 01:40:28;;;;;;;12.60;3.10;;;7.40;99.90;;;;;;5059656;28;20029;-74
2023/05/03 01:42:55;;;;;;;6.57;2.00;;;7.40;99.90;;;;;;5066628;28;20056;-74
2023/05/03 01:45:21;;;;;;;6.35;2.10;;;7.40;99.90;;;;;;5053681;28;20268;-74
2023/05/03 01:47:47;;;;;;;8.05;2.20;;;7.40;99.90;;;;;;5076633;28;20103;-74
2023/05/03 01:50:13;;;;;;;7.20;2.05;;;7.40;99.90;;;;;;5062407;28;20044;-74
2023/05/03 01:52:38;;;;;;;7.15;2.03;;;7.40;99.90;;;;;;5062432;28;20040;-75
2023/05/03 01:55:05;;;;;;;8.00;2.15;;;7.40;99.90;;;;;;5062125;28;20048;-74
2023/05/03 01:57:31;;;;;;;7.18;2.30;;;7.40;99.90;;;;;;5059288;28;20560;-74
2023/05/03 01:59:56;;;;;;;7.70;2.30;;;7.40;99.90;;;;;;5069185;28;20040;-74
2023/05/03 02:02:22;;;;;;;6.93;2.25;;;7.50;99.90;;;;;;5059676;28;20032;-74
2023/05/03 02:04:48;;;;;;;5.90;1.95;;;7.40;99.90;;;;;;5065523;28;20040;-74
2023/05/03 02:07:14;;;;;;;6.00;2.05;;;7.50;99.90;;;;;;5056828;28;20162;-74
2023/05/03 02:09:40;;;;;;;6.80;2.00;;;7.50;99.90;;;;;;5065408;28;20356;-74
2023/05/03 02:12:05;;;;;;;6.97;2.10;;;7.50;99.90;;;;;;5040275;28;20213;-74
2023/05/03 02:14:31;;;;;;;7.80;1.90;;;7.50;99.90;;;;;;5057802;28;20025;-74
2023/05/03 02:16:58;;;;;;;8.13;1.95;;;7.50;99.90;;;;;;5044075;28;20186;-74
2023/05/03 02:19:23;;;;;;;6.03;2.20;;;7.50;99.90;;;;;;5060974;28;20033;-74
2023/05/03 02:21:49;;;;;;;6.60;2.00;;;7.50;99.90;;;;;;5065587;28;20230;-75
2023/05/03 02:24:15;;;;;;;6.88;1.90;;;7.60;99.90;;;;;;5064948;28;20029;-74
2023/05/03 02:26:41;;;;;;;6.82;1.80;;;7.50;99.90;;;;;;5061709;28;20032;-74
2023/05/03 02:29:07;;;;;;;8.82;2.33;;;7.50;99.90;;;;;;5057436;28;20032;-74
2023/05/03 02:31:32;;;;;;;8.35;2.13;;;7.50;99.90;;;;;;5070740;28;20047;-74
2023/05/03 02:33:58;;;;;;;7.32;1.73;;;7.50;99.90;;;;;;5077798;28;20048;-74
2023/05/03 02:36:24;;;;;;;6.97;1.90;;;7.50;99.90;;;;;;5067666;28;20039;-74
2023/05/03 02:38:50;;;;;;;6.93;1.90;;;7.50;99.90;;;;;;5056271;28;20104;-74
2023/05/03 02:41:15;;;;;;;5.32;1.80;;;7.50;99.90;;;;;;5059922;28;20091;-74
2023/05/03 02:43:41;;;;;;;6.10;2.00;;;7.50;99.90;;;;;;5064121;28;20036;-74
2023/05/03 02:46:07;;;;;;;10.52;2.35;;;7.50;99.90;;;;;;5057129;28;20042;-74
2023/05/03 02:48:32;;;;;;;8.00;2.15;;;7.50;99.90;;;;;;5071724;28;20198;-74
2023/05/03 02:50:58;;;;;;;7.65;2.40;;;7.50;99.90;;;;;;5059339;28;20247;-74
2023/05/03 02:53:24;;;;;;;7.07;2.22;;;7.50;99.90;;;;;;5051245;28;20134;-74
2023/05/03 02:55:50;;;;;;;6.22;2.28;;;7.50;99.90;;;;;;5060650;28;20043;-74
2023/05/03 02:58:15;;;;;;;6.97;2.30;;;7.50;99.90;;;;;;5056475;28;20201;-74
2023/05/03 03:00:41;;;;;;;5.05;1.95;;;7.50;99.90;;;;;;5073477;28;20234;-74
2023/05/03 03:03:07;;;;;;;8.18;2.20;;;7.50;99.90;;;;;;5065066;28;20048;-74
2023/05/03 03:05:33;;;;;;;5.97;2.00;;;7.50;99.90;;;;;;5066069;28;20033;-74
2023/05/03 03:07:59;;;;;;;7.57;2.30;;;7.50;99.90;;;;;;5062645;28;20033;-74
2023/05/03 03:10:24;;;;;;;8.65;2.30;;;7.50;99.90;;;;;;5063814;28;20289;-74
2023/05/03 03:12:50;;;;;;;7.63;2.15;;;7.50;99.90;;;;;;5060228;28;20060;-74
2023/05/03 03:15:16;;;;;;;8.18;2.55;;;7.50;99.90;;;;;;5066434;28;20287;-74
2023/05/03 03:17:41;;;;;;;6.53;2.05;;;7.50;99.90;;;;;;5052622;28;20274;-74
2023/05/03 03:20:10;;;;;;;6.70;2.20;;;7.50;99.90;;;;;;5060083;28;20036;-74
2023/05/03 03:22:36;;;;;;;6.53;2.20;;;7.50;99.90;;;;;;5066783;28;20091;-74
2023/05/03 03:25:03;;;;;;;10.27;2.47;;;7.50;99.90;;;;;;5063861;28;20045;-75
2023/05/03 03:27:29;;;;;;;6.05;2.30;;;7.40;99.90;;;;;;5072229;28;20044;-75
2023/05/03 03:29:55;;;;;;;7.15;2.10;;;7.40;99.90;;;;;;5067679;28;20051;-74
2023/05/03 03:32:21;;;;;;;6.88;2.35;;;7.40;99.90;;;;;;5062138;28;20310;-74
2023/05/03 03:34:47;;;;;;;8.98;2.40;;;7.30;99.90;;;;;;5062207;28;20045;-74
2023/05/03 03:37:13;;;;;;;10.95;2.75;;;7.30;99.90;;;;;;5067798;28;20043;-74
2023/05/03 03:39:39;;;;;;;7.55;2.58;;;7.30;99.90;;;;;;5069421;28;20043;-75
2023/05/03 03:42:06;;;;;;;6.20;2.30;;;7.30;99.90;;;;;;5058124;28;20032;-74
2023/05/03 03:44:31;;;;;;;6.90;2.30;;;7.20;99.90;;;;;;5044729;28;20112;-74
2023/05/03 03:46:57;;;;;;;7.07;2.30;;;7.20;99.90;;;;;;5073928;28;20290;-74
2023/05/03 03:49:23;;;;;;;7.40;2.35;;;7.20;99.90;;;;;;5074592;28;20111;-75
2023/05/03 03:51:48;;;;;;;8.00;2.20;;;7.20;99.90;;;;;;5075347;28;20032;-75
2023/05/03 03:54:14;;;;;;;8.00;2.20;;;7.20;99.90;;;;;;5064868;28;20023;-74
2023/05/03 03:56:40;;;;;;;5.60;2.00;;;7.20;99.90;;;;;;5069229;28;20308;-74
2023/05/03 03:59:07;;;;;;;8.48;2.63;;;7.20;99.90;;;;;;5065940;28;20124;-74
2023/05/03 04:01:32;;;;;;;7.22;2.10;;;7.20;99.90;;;;;;5056096;28;20059;-74
2023/05/03 04:03:58;;;;;;;8.13;2.53;;;7.20;99.90;;;;;;5058993;28;20025;-74
2023/05/03 04:06:25;;;;;;;7.10;2.20;;;7.20;99.90;;;;;;5059872;28;20044;-74
2023/05/03 04:08:51;;;;;;;8.88;2.38;;;7.20;99.90;;;;;;5056177;28;20024;-74
2023/05/03 04:11:17;;;;;;;8.27;2.40;;;7.20;99.90;;;;;;5065907;28;20183;-75
2023/05/03 04:13:43;;;;;;;7.15;2.45;;;7.20;99.90;;;;;;5064209;28;20360;-74
2023/05/03 04:16:09;;;;;;;8.35;2.83;;;7.20;99.90;;;;;;5071076;28;20036;-75
2023/05/03 04:18:34;;;;;;;7.35;2.30;;;7.20;99.90;;;;;;5042553;28;20202;-74
2023/05/03 04:21:00;;;;;;;7.47;2.70;;;7.20;99.90;;;;;;5067013;28;20032;-75
2023/05/03 04:23:26;;;;;;;10.45;2.72;;;7.20;99.90;;;;;;5064537;28;20039;-75
2023/05/03 04:25:51;;;;;;;9.18;2.75;;;7.20;99.90;;;;;;5065347;28;20679;-75
2023/05/03 04:28:18;;;;;;;6.78;2.70;;;7.30;99.90;;;;;;5068778;28;20047;-74
2023/05/03 04:30:46;;;;;;;7.82;2.60;;;7.20;99.90;;;;;;5050104;28;20036;-74
2023/05/03 04:33:12;;;;;;;8.45;2.70;;;7.30;99.90;;;;;;5065229;28;20191;-74
2023/05/03 04:35:39;;;;;;;7.10;2.78;;;7.30;99.90;;;;;;5062218;28;20152;-74
2023/05/03 04:38:05;;;;;;;7.43;2.95;;;7.30;99.90;;;;;;5057410;28;20262;-74
2023/05/03 04:40:30;;;;;;;7.32;2.60;;;7.40;99.90;;;;;;5048408;28;20126;-74
2023/05/03 04:42:56;;;;;;;8.90;2.95;;;7.40;99.90;;;;;;5050737;28;20044;-74
2023/05/03 04:45:22;;;;;;;9.50;2.70;;;7.40;99.90;;;;;;5052892;28;20037;-74
2023/05/03 04:47:48;;;;;;;9.82;2.78;;;7.40;99.90;;;;;;5052291;28;20055;-74
2023/05/03 04:50:15;;;;;;;10.07;2.65;;;7.40;99.90;;;;;;5037515;28;20035;-74
2023/05/03 04:52:41;;;;;;;6.72;2.30;;;7.40;99.90;;;;;;5052215;28;20297;-74
2023/05/03 04:55:07;;;;;;;9.00;2.88;;;7.50;99.90;;;;;;5061838;28;20031;-75
2023/05/03 04:57:33;;;;;;;11.27;2.65;;;7.50;99.90;;;;;;5058534;28;20084;-74
2023/05/03 04:59:59;;;;;;;10.60;2.53;;;7.50;99.90;;;;;;5045678;28;20017;-74
2023/05/03 05:02:26;;;;;;;7.88;2.45;;;7.60;99.90;;;;;;5048436;28;20096;-74
2023/05/03 05:04:52;;;;;;;6.50;2.20;;;7.60;99.90;;;;;;5057281;28;20367;-74
2023/05/03 05:07:18;;;;;;;5.60;2.00;;;7.60;99.90;;;;;;5056878;28;20028;-74
2023/05/03 05:09:44;;;;;;;6.55;2.28;;;7.60;99.90;;;;;;5061721;28;20086;-74
2023/05/03 05:12:10;;;;;;;10.57;2.63;;;7.60;99.90;;;;;;5089008;28;20276;-74
2023/05/03 05:14:36;;;;;;;8.38;2.03;;;7.60;99.90;;;;;;5060603;28;20279;-74
2023/05/03 05:17:02;;;;;;;7.75;2.10;;;7.60;99.90;;;;;;5060397;28;20108;-74
2023/05/03 05:19:27;;;;;;;9.00;2.22;;;7.60;99.90;;;;;;5041037;28;20037;-74
2023/05/03 05:21:53;;;;;;;7.05;1.98;;;7.60;99.90;;;;;;5057818;28;20067;-74
2023/05/03 05:24:19;;;;;;;6.50;1.83;;;7.70;99.90;;;;;;5058920;28;20173;-74
2023/05/03 05:26:45;;;;;;;7.50;1.90;;;7.70;99.90;;;;;;5057286;28;20059;-74
2023/05/03 05:29:10;;;;;;;6.85;2.03;;;7.70;99.90;;;;;;5057382;28;20045;-74
2023/05/03 05:31:36;;;;;;;6.75;1.85;;;7.70;99.90;;;;;;5070439;28;20044;-74
2023/05/03 05:34:02;;;;;;;7.68;2.00;;;7.70;99.90;;;;;;5070335;28;20043;-74
2023/05/03 05:36:29;;;;;;;7.88;2.20;;;7.80;99.90;;;;;;5083638;28;20044;-74
2023/05/03 05:38:55;;;;;;;8.15;2.15;;;7.80;99.90;;;;;;5080382;28;20036;-74
2023/05/03 05:41:21;;;;;;;7.88;2.28;;;7.80;99.90;;;;;;5083408;28;20206;-74
2023/05/03 05:43:47;;;;;;;6.40;2.15;;;7.80;99.90;;;;;;5064540;28;20043;-74
2023/05/03 05:46:13;;;;;;;9.00;2.60;;;7.90;99.90;;;;;;5074965;28;20071;-74
2023/05/03 05:48:40;;;;;;;7.68;2.40;;;7.90;99.90;;;;;;5067259;28;20089;-74
2023/05/03 05:51:06;;;;;;;6.57;2.15;;;7.90;99.90;;;;;;5086925;28;20040;-75
2023/05/03 05:53:32;;;;;;;6.63;2.20;;;8.00;99.90;;;;;;5058448;28;20189;-75
2023/05/03 05:55:57;;;;;;;7.32;2.33;;;8.10;99.90;;;;;;5082479;28;20032;-74
2023/05/03 05:58:23;;;;;;;6.88;2.13;;;8.10;99.90;;;;;;5086798;28;20038;-74
2023/05/03 06:00:49;;;;;;;5.53;2.00;;;8.10;99.90;;;;;;5087061;28;20032;-75
2023/05/03 06:03:15;;;;;;;10.30;2.17;;;8.20;99.90;;;;;;5067033;28;20072;-74
2023/05/03 06:05:41;;;;;;;6.05;2.00;;;8.20;99.90;;;;;;5079893;28;20020;-74
2023/05/03 06:08:07;;;;;;;8.43;2.53;;;8.30;99.90;;;;;;5095299;28;20091;-74
2023/05/03 06:10:33;;;;;;;13.38;2.47;;;8.40;99.90;;;;;;5066570;28;20047;-74
2023/05/03 06:12:59;;;;;;;9.05;2.35;;;8.40;99.90;;;;;;5077631;28;20032;-75
2023/05/03 06:15:26;;;;;;;6.38;1.90;;;8.50;99.90;;;;;;5056805;28;20032;-74
2023/05/03 06:17:52;;;;;;;8.43;2.00;;;8.50;99.90;;;;;;5065151;28;20098;-74
2023/05/03 06:20:18;;;;;;;8.07;2.33;;;8.60;99.90;;;;;;5064243;28;20242;-74
2023/05/03 06:22:43;;;;;;;8.27;2.10;;;8.70;99.90;;;;;;5062710;28;20127;-74
2023/05/03 06:25:11;;;;;;;5.03;1.77;;;8.70;99.90;;;;;;5061237;28;20300;-74
2023/05/03 06:27:37;;;;;;;5.35;1.60;;;8.70;99.90;;;;;;5064573;28;20037;-75
2023/05/03 06:30:03;;;;;;;3.67;1.40;;;8.70;99.90;;;;;;5053033;28;20073;-75
2023/05/03 06:32:29;;;;;;;8.35;1.83;;;8.70;99.90;;;;;;5062196;28;20044;-74
2023/05/03 06:34:55;;;;;;;2.97;1.30;;;8.80;99.90;;;;;;5047286;28;20100;-75
2023/05/03 06:37:21;;;;;;;6.70;1.60;;;8.80;99.90;;;;;;5077620;28;20044;-74
2023/05/03 06:39:49;;;;;;;6.28;1.52;;;8.80;99.90;;;;;;5064433;28;20028;-75
2023/05/03 06:42:15;;;;;;;5.70;1.88;;;8.90;99.90;;;;;;5082829;28;20039;-75
2023/05/03 06:44:41;;;;;;;6.18;1.60;;;8.90;99.90;;;;;;5065909;28;20051;-75
2023/05/03 06:47:07;;;;;;;4.07;1.48;;;9.00;99.90;;;;;;5052421;28;20039;-75
2023/05/03 06:49:33;;;;;;;6.00;1.60;;;9.00;99.90;;;;;;5059595;28;20028;-75
2023/05/03 06:51:59;;;;;;;7.10;1.80;;;9.10;99.90;;;;;;5081174;28;20039;-75
2023/05/03 06:54:24;;;;;;;6.78;1.73;;;9.20;99.90;;;;;;5077290;28;20112;-75
2023/05/03 06:56:50;;;;;;;5.35;1.60;;;9.20;99.90;;;;;;5073359;28;20102;-75
2023/05/03 06:59:16;;;;;;;7.05;1.60;;;9.20;99.90;;;;;;5079380;28;20035;-75
2023/05/03 07:01:42;;;;;;;3.13;1.30;;;9.40;99.90;;;;;;5045295;28;20036;-75
2023/05/03 07:04:08;;;;;;;5.07;1.60;;;9.50;99.90;;;;;;5060660;28;20032;-75
2023/05/03 07:06:33;;;;;;;6.43;1.40;;;9.50;99.90;;;;;;5076058;28;20187;-75
2023/05/03 07:08:59;;;;;;;5.05;1.67;;;9.60;99.90;;;;;;5054752;28;20037;-75
2023/05/03 07:11:25;;;;;;;4.93;1.48;;;9.70;99.90;;;;;;5062956;28;20086;-75
2023/05/03 07:13:51;;;;;;;7.80;1.60;;;9.70;99.90;;;;;;5072266;28;20166;-75
2023/05/03 07:16:20;;;;;;;4.50;1.40;;;9.80;99.90;;;;;;5067928;28;20025;-75
2023/05/03 07:18:47;;;;;;;9.52;1.60;;;9.80;99.90;;;;;;5069718;28;20060;-75
2023/05/03 07:21:14;;;;;;;4.85;1.50;;;9.80;99.90;;;;;;5065100;28;20090;-75
2023/05/03 07:23:40;;;;;;;3.20;1.30;;;9.80;99.90;;;;;;5069633;28;20036;-75
2023/05/03 07:26:07;;;;;;;5.05;1.27;;;9.90;99.90;;;;;;5069617;28;20044;-75
2023/05/03 07:28:33;;;;;;;5.93;1.55;;;9.90;99.90;;;;;;5098937;28;20024;-75
2023/05/03 07:30:59;;;;;;;6.07;1.70;;;10.00;99.90;;;;;;5053975;28;20100;-75
2023/05/03 07:33:25;;;;;;;4.00;1.50;;;10.00;99.90;;;;;;5050415;28;20064;-75
2023/05/03 07:35:51;;;;;;;6.57;1.50;;;10.00;99.90;;;;;;5071277;28;20202;-75
2023/05/03 07:38:17;;;;;;;4.78;1.52;;;10.10;99.90;;;;;;5077482;28;20258;-75
2023/05/03 07:40:42;;;;;;;5.97;1.50;;;10.10;99.90;;;;;;5068603;28;20155;-75
2023/05/03 07:43:09;;;;;;;8.50;1.83;;;10.20;99.90;;;;;;5062761;28;20066;-75
2023/05/03 07:45:35;;;;;;;4.80;1.33;;;10.10;99.90;;;;;;5065301;28;20028;-75
2023/05/03 07:48:03;;;;;;;5.60;1.80;;;10.10;99.90;;;;;;5073108;28;20036;-75
2023/05/03 07:50:29;;;;;;;5.40;1.70;;;10.10;99.90;;;;;;5060966;28;20088;-75
2023/05/03 07:52:55;;;;;;;3.60;1.35;;;10.10;99.90;;;;;;5070827;28;20104;-75
2023/05/03 07:55:21;;;;;;;6.57;1.50;;;10.10;99.90;;;;;;5046111;28;20036;-75
2023/05/03 07:57:47;;;;;;;4.47;1.35;;;10.10;99.90;;;;;;5041721;28;20029;-75
2023/05/03 08:00:16;;;;;;;4.75;1.55;;;10.10;99.90;;;;;;5060679;28;20057;-75
2023/05/03 08:02:41;;;;;;;5.65;1.80;;;10.10;99.90;;;;;;5064241;28;20282;-75
2023/05/03 08:05:09;;;;;;;7.80;1.50;;;10.10;99.90;;;;;;5062843;28;20032;-75
2023/05/03 08:07:35;;;;;;;3.67;1.20;;;10.20;99.90;;;;;;5079242;28;20037;-75
2023/05/03 08:10:01;;;;;;;3.78;1.40;;;10.20;99.90;;;;;;5057967;28;20032;-75
2023/05/03 08:12:27;;;;;;;5.80;1.80;;;10.20;99.90;;;;;;5053167;28;20282;-75
2023/05/03 08:14:54;;;;;;;5.43;1.50;;;10.30;99.90;;;;;;5071680;28;20021;-75
2023/05/03 08:17:21;;;;;;;3.63;1.42;;;10.30;99.90;;;;;;5096616;28;20126;-75
2023/05/03 08:19:47;;;;;;;5.53;1.85;;;10.30;99.90;;;;;;5079852;28;20041;-75
2023/05/03 08:22:13;;;;;;;4.90;1.65;;;10.40;99.90;;;;;;5043645;28;20043;-75
2023/05/03 08:24:39;;;;;;;6.35;1.73;;;10.40;99.90;;;;;;5052488;28;20060;-75
2023/05/03 08:27:06;;;;;;;5.32;1.80;;;10.40;99.90;;;;;;5056785;28;20040;-75
2023/05/03 08:29:33;;;;;;;5.78;1.80;;;10.30;99.90;;;;;;5076116;28;20064;-75
2023/05/03 08:31:58;;;;;;;5.95;1.60;;;10.30;99.90;;;;;;5054157;28;20108;-74
2023/05/03 08:34:24;;;;;;;6.53;1.70;;;10.40;99.90;;;;;;5059111;28;20039;-75
2023/05/03 08:36:50;;;;;;;4.78;1.70;;;10.50;99.90;;;;;;5074108;28;20044;-74
2023/05/03 08:39:17;;;;;;;5.47;1.70;;;10.60;99.90;;;;;;5068322;28;20295;-75
2023/05/03 08:41:43;;;;;;;7.47;1.80;;;10.50;99.90;;;;;;5049056;28;20319;-75
2023/05/03 08:44:21;;;;;;;7.50;2.30;;;10.50;99.90;;;;;;5061448;28;20040;-74
2023/05/03 08:46:46;;;;;;;6.88;1.70;;;10.50;99.90;;;;;;5069297;28;20049;-75
2023/05/03 08:49:13;;;;;;;6.35;1.90;;;10.50;99.90;;;;;;5063895;28;20374;-75
2023/05/03 08:51:46;;;;;;;6.00;1.60;;;10.50;99.90;;;;;;5080509;28;20071;-75
2023/05/03 08:54:13;;;;;;;4.72;1.90;;;10.50;99.90;;;;;;5063286;28;20048;-75
2023/05/03 08:56:41;;;;;;;5.65;1.65;;;10.50;99.90;;;;;;5056224;28;20166;-75
2023/05/03 08:59:07;;;;;;;7.82;1.83;;;10.50;99.90;;;;;;5059025;28;20024;-75
2023/05/03 09:01:40;;;;;;;5.15;1.60;;;10.50;99.90;;;;;;5062203;28;20143;-75
2023/05/03 09:04:07;;;;;;;5.57;1.70;;;10.50;99.90;;;;;;5065482;28;20040;-74
2023/05/03 09:06:33;;;;;;;5.07;1.70;;;10.60;99.90;;;;;;5056869;28;20024;-74
2023/05/03 09:09:00;;;;;;;4.10;1.48;;;10.70;99.90;;;;;;5060574;28;20126;-75
2023/05/03 09:11:30;;;;;;;5.07;1.48;;;10.70;99.90;;;;;;5051044;28;20043;-75
2023/05/03 09:14:08;;;;;;;6.05;1.80;;;10.70;99.90;;;;;;5045713;28;20033;-75
2023/05/03 09:16:34;;;;;;;5.90;1.70;;;10.80;99.90;;;;;;5061135;28;20028;-75
2023/05/03 09:19:03;;;;;;;6.00;1.60;;;10.90;99.90;;;;;;5068948;28;20051;-75
2023/05/03 09:21:30;;;;;;;8.15;1.60;;;10.90;99.90;;;;;;5062971;28;20036;-75
2023/05/03 09:23:57;;;;;;;7.35;1.60;;;10.90;99.90;;;;;;5059759;28;20071;-74
2023/05/03 09:26:34;;;;;;;5.28;1.75;;;10.90;99.90;;;;;;5073381;28;20290;-75
2023/05/03 09:29:03;;;;;;;5.82;1.55;;;11.00;99.90;;;;;;5076562;28;20073;-75
2023/05/03 09:31:30;;;;;;;6.30;1.67;;;11.10;99.90;;;;;;5061341;28;20111;-74
2023/05/03 09:33:57;;;;;;;4.03;1.55;;;11.10;99.90;;;;;;5058380;28;20064;-75
2023/05/03 09:36:23;;;;;;;6.03;1.77;;;11.00;99.90;;;;;;5071673;28;20195;-75
2023/05/03 09:38:50;;;;;;;7.95;2.08;;;11.00;99.90;;;;;;5054122;28;20297;-75
2023/05/03 09:41:29;;;;;;;4.70;1.55;;;10.90;99.90;;;;;;5082493;28;20120;-75
2023/05/03 09:43:55;;;;;;;6.75;1.73;;;10.90;99.90;;;;;;5074716;28;20029;-75
2023/05/03 09:46:26;;;;;;;6.60;1.75;;;11.00;99.90;;;;;;5069810;28;20118;-75
2023/05/03 09:48:54;;;;;;;6.53;1.63;;;10.90;99.90;;;;;;5062197;28;20078;-74
2023/05/03 09:51:25;;;;;;;14.27;2.95;;;10.80;99.90;;;;;;5045254;28;20021;-76
2023/05/03 09:53:51;;;;;;;5.40;1.80;;;10.80;99.90;;;;;;5065490;28;20086;-75
2023/05/03 09:56:19;;;;;;;6.40;1.70;;;10.80;99.90;;;;;;5068191;28;20040;-75
2023/05/03 09:58:45;;;;;;;7.18;2.08;;;10.90;99.90;;;;;;5072258;28;20033;-74
2023/05/03 10:01:13;;;;;;;6.20;1.65;;;11.00;99.90;;;;;;5064513;28;20047;-75
2023/05/03 10:03:49;;;;;;;4.68;1.60;;;11.10;99.90;;;;;;5055756;28;20106;-75
2023/05/03 10:06:30;;;;;;;6.32;1.80;;;11.20;99.90;;;;;;5057094;28;20074;-75
2023/05/03 10:09:02;;;;;;;6.57;1.88;;;11.30;99.90;;;;;;5069136;28;20060;-74
2023/05/03 10:11:28;;;;;;;7.45;1.83;;;11.30;99.90;;;;;;5060324;28;20223;-75
2023/05/03 10:13:54;;;;;;;6.75;1.80;;;11.30;99.90;;;;;;5065466;28;20102;-75
2023/05/03 10:16:29;;;;;;;5.38;1.70;;;11.30;99.90;;;;;;5039564;28;20025;-75
2023/05/03 10:19:14;;;;;;;6.40;1.92;;;11.40;99.90;;;;;;5057371;28;20103;-75
2023/05/03 10:22:06;;;;;;;7.60;1.95;;;11.30;99.90;;;;;;5079591;28;20037;-75
2023/05/03 10:24:36;;;;;;;5.20;1.60;;;11.40;99.90;;;;;;5065799;28;20036;-75
2023/05/03 10:27:05;;;;;;;5.43;1.90;;;11.40;99.90;;;;;;5060252;28;20036;-75
2023/05/03 10:29:34;;;;;;;7.50;1.60;;;11.50;99.90;;;;;;5077972;28;20024;-75
2023/05/03 10:32:04;;;;;;;7.13;1.77;;;11.50;99.90;;;;;;5072916;28;20163;-75
2023/05/03 10:34:34;;;;;;;3.85;1.55;;;11.60;99.90;;;;;;5067683;28;20032;-75
2023/05/03 10:37:02;;;;;;;7.20;1.73;;;11.70;99.90;;;;;;5076775;28;20269;-75
2023/05/03 10:39:28;;;;;;;7.20;1.73;;;11.70;99.90;;;;;;5069730;28;20116;-75
2023/05/03 10:41:57;;;;;;;8.38;1.67;;;11.90;99.90;;;;;;5065450;28;20047;-74
2023/05/03 10:44:28;;;;;;;6.55;1.70;;;12.00;99.90;;;;;;5093514;28;20052;-75
2023/05/03 10:46:54;;;;;;;7.68;1.90;;;12.00;99.90;;;;;;5069455;28;20035;-75
2023/05/03 10:49:21;;;;;;;6.30;1.80;;;12.00;99.90;;;;;;5064248;28;20147;-75
2023/05/03 10:51:48;;;;;;;6.40;1.88;;;11.90;99.90;;;;;;5077728;28;20082;-75
2023/05/03 10:54:14;;;;;;;6.30;1.80;;;12.00;99.90;;;;;;5061353;28;20028;-75
2023/05/03 10:56:51;;;;;;;5.60;1.67;;;12.10;99.90;;;;;;5067594;28;20096;-75
2023/05/03 10:59:16;;;;;;;9.23;2.00;;;12.20;99.90;;;;;;5087067;28;20036;-75
2023/05/03 11:01:45;;;;;;;7.82;2.00;;;12.40;99.90;;;;;;5058589;28;20270;-75
2023/05/03 11:04:44;;;;;;;7.28;1.88;;;12.50;99.90;;;;;;5054962;28;20025;-75
2023/05/03 11:07:10;;;;;;;6.65;1.80;;;12.50;99.90;;;;;;5045116;28;20098;-75
2023/05/03 11:09:36;;;;;;;5.25;1.70;;;12.60;99.90;;;;;;5060363;28;20028;-75
2023/05/03 11:12:07;;;;;;;6.05;2.00;;;12.60;99.90;;;;;;5061398;28;20044;-75
2023/05/03 11:14:33;;;;;;;5.60;1.90;;;12.60;99.90;;;;;;5043136;28;20028;-75
2023/05/03 11:16:59;;;;;;;6.50;1.80;;;12.60;99.90;;;;;;5062816;28;20061;-75
2023/05/03 11:19:25;;;;;;;5.65;2.00;;;12.60;99.90;;;;;;5063307;28;20036;-74
2023/05/03 11:21:52;;;;;;;4.80;1.58;;;12.60;99.90;;;;;;5061730;28;20036;-75
2023/05/03 11:24:17;;;;;;;6.45;2.05;;;12.70;99.90;;;;;;5065047;28;20172;-75
2023/05/03 11:26:43;;;;;;;6.15;1.80;;;12.70;99.90;;;;;;5049232;28;20094;-75
2023/05/03 11:29:09;;;;;;;9.05;2.05;;;12.70;99.90;;;;;;5083489;28;20293;-75
2023/05/03 11:31:35;;;;;;;6.30;2.03;;;12.70;99.90;;;;;;5073169;28;20078;-75
2023/05/03 11:34:01;;;;;;;5.38;1.95;;;12.70;99.90;;;;;;5046795;28;20049;-75
2023/05/03 11:36:27;;;;;;;6.50;1.80;;;12.70;99.90;;;;;;5060599;28;20029;-75
2023/05/03 11:38:53;;;;;;;5.10;1.90;;;12.70;99.90;;;;;;5060391;28;20033;-75
2023/05/03 11:41:19;;;;;;;5.60;1.80;;;12.60;99.90;;;;;;5054329;28;20043;-75
2023/05/03 11:43:47;;;;;;;5.70;2.13;;;12.70;99.90;;;;;;5060131;28;20037;-75
2023/05/03 11:46:25;;;;;;;7.40;2.30;;;12.70;99.90;;;;;;5053235;28;20325;-75
2023/05/03 11:48:51;;;;;;;7.85;2.30;;;12.80;99.90;;;;;;5060362;28;20144;-75
2023/05/03 11:51:26;;;;;;;8.10;2.20;;;13.00;99.90;;;;;;5072477;28;20041;-75
2023/05/03 11:53:52;;;;;;;5.78;1.95;;;13.20;99.90;;;;;;5069471;28;20095;-75
2023/05/03 11:56:19;;;;;;;5.45;2.10;;;13.30;99.90;;;;;;5068913;28;20028;-75
2023/05/03 11:58:58;;;;;;;8.43;2.00;;;13.00;99.90;;;;;;5078704;28;20039;-75
2023/05/03 12:01:26;;;;;;;8.82;2.00;;;13.00;99.90;;;;;;5043261;28;20267;-75
2023/05/03 12:03:54;;;;;;;8.07;2.13;;;12.80;99.90;;;;;;5060912;28;20200;-75
2023/05/03 12:06:20;;;;;;;8.90;2.00;;;12.70;99.90;;;;;;5074201;28;20051;-75
2023/05/03 12:08:46;;;;;;;7.25;2.20;;;12.70;99.90;;;;;;5047323;28;20066;-75
2023/05/03 12:11:11;;;;;;;7.93;2.20;;;12.60;99.90;;;;;;5073042;28;20053;-75
2023/05/03 12:13:38;;;;;;;11.48;2.40;;;12.60;99.90;;;;;;5070190;28;20028;-75
2023/05/03 12:16:05;;;;;;;8.18;2.30;;;12.60;99.90;;;;;;5073736;28;20029;-76
2023/05/03 12:18:50;;;;;;;6.40;2.00;;;12.70;99.90;;;;;;5065985;28;20240;-75
2023/05/03 12:21:17;;;;;;;7.57;2.10;;;12.90;99.90;;;;;;5061370;28;20055;-75
2023/05/03 12:23:43;;;;;;;6.88;2.08;;;12.70;99.90;;;;;;5068160;28;20087;-75
2023/05/03 12:26:08;;;;;;;7.57;2.20;;;12.70;99.90;;;;;;5058903;28;20044;-75
2023/05/03 12:28:35;;;;;;;7.82;2.42;;;12.60;99.90;;;;;;5058733;28;20028;-75
2023/05/03 12:31:00;;;;;;;8.40;2.35;;;12.50;99.90;;;;;;5059459;28;20243;-75
2023/05/03 12:33:26;;;;;;;9.43;2.10;;;12.40;99.90;;;;;;5056184;28;20105;-75
2023/05/03 12:35:52;;;;;;;7.13;2.00;;;12.60;99.90;;;;;;5065534;28;20037;-75
2023/05/03 12:38:17;;;;;;;9.05;2.10;;;12.70;99.90;;;;;;5056945;28;20235;-75
2023/05/03 12:40:44;;;;;;;7.40;2.00;;;12.80;99.90;;;;;;5052897;28;20040;-75
2023/05/03 12:43:10;;;;;;;5.95;2.00;;;13.00;99.90;;;;;;5061177;28;20058;-76
2023/05/03 12:45:36;;;;;;;6.80;2.05;;;13.00;99.90;;;;;;5062987;28;20041;-75
2023/05/03 12:48:02;;;;;;;10.38;2.00;;;13.10;99.90;;;;;;5061589;28;20037;-75
2023/05/03 12:50:29;;;;;;;6.40;1.90;;;13.30;99.90;;;;;;5075321;28;20045;-75
2023/05/03 12:52:55;;;;;;;7.93;2.00;;;13.50;99.90;;;;;;5047547;28;20096;-75